createdAt,value
2018-09-18T00:00:02.643Z,16.12
2018-09-18T00:02:30.733Z,16.07
2018-09-18T00:04:58.843Z,16.02
2018-09-18T00:07:26.924Z,15.98
2018-09-18T00:09:55.008Z,15.95
2018-09-18T00:12:23.093Z,15.89
2018-09-18T00:14:51.160Z,15.85
2018-09-18T00:17:19.238Z,15.80
2018-09-18T00:19:47.349Z,15.82
2018-09-18T00:22:15.425Z,15.84
2018-09-18T00:24:43.520Z,15.86
2018-09-18T00:27:11.628Z,15.88
2018-09-18T00:29:39.709Z,15.90
2018-09-18T00:32:07.800Z,15.93
2018-09-18T00:34:35.915Z,15.99
2018-09-18T00:37:03.974Z,16.02
2018-09-18T00:39:32.084Z,16.07
2018-09-18T00:42:00.165Z,16.12
2018-09-18T00:44:28.256Z,16.17
2018-09-18T00:46:56.380Z,16.28
2018-09-18T00:49:24.475Z,16.34
2018-09-18T00:51:52.564Z,16.39
2018-09-18T00:54:20.658Z,16.40
2018-09-18T00:56:49.340Z,16.41
2018-09-18T00:59:17.437Z,16.37
2018-09-18T01:01:45.667Z,16.34
2018-09-18T01:04:13.760Z,16.31
2018-09-18T01:06:41.883Z,16.30
2018-09-18T01:09:10.793Z,16.28
2018-09-18T01:11:39.173Z,16.30
2018-09-18T01:14:07.437Z,16.26
2018-09-18T01:16:35.930Z,16.20
2018-09-18T01:19:04.040Z,16.15
2018-09-18T01:21:32.136Z,16.11
2018-09-18T01:24:00.248Z,16.09
2018-09-18T01:26:28.320Z,16.10
2018-09-18T01:28:56.423Z,16.12
2018-09-18T01:31:24.513Z,16.13
2018-09-18T01:33:52.584Z,16.16
2018-09-18T01:36:20.669Z,16.25
2018-09-18T01:38:48.744Z,16.30
2018-09-18T01:41:16.824Z,16.34
2018-09-18T01:43:44.915Z,16.37
2018-09-18T01:46:12.985Z,16.43
2018-09-18T01:48:41.166Z,16.51
2018-09-18T01:51:09.268Z,16.52
2018-09-18T01:53:37.336Z,16.54
2018-09-18T01:56:05.395Z,16.49
2018-09-18T01:58:33.464Z,16.43
2018-09-18T02:01:01.564Z,16.39
2018-09-18T02:03:29.638Z,16.37
2018-09-18T02:05:57.732Z,16.36
2018-09-18T02:08:26.092Z,16.37
2018-09-18T02:10:54.187Z,16.37
2018-09-18T02:13:22.281Z,16.38
2018-09-18T02:15:50.377Z,16.38
2018-09-18T02:18:18.440Z,16.39
2018-09-18T02:20:46.525Z,16.37
2018-09-18T02:23:14.581Z,16.35
2018-09-18T02:25:42.640Z,16.31
2018-09-18T02:28:10.699Z,16.29
2018-09-18T02:30:38.787Z,16.26
2018-09-18T02:33:06.844Z,16.24
2018-09-18T02:35:34.910Z,16.23
2018-09-18T02:38:03.015Z,16.19
2018-09-18T02:40:31.096Z,16.12
2018-09-18T02:42:59.161Z,16.08
2018-09-18T02:45:27.332Z,16.00
2018-09-18T02:47:55.417Z,15.95
2018-09-18T02:50:23.478Z,15.92
2018-09-18T02:52:51.544Z,15.88
2018-09-18T02:55:19.613Z,15.85
2018-09-18T02:57:47.842Z,15.82
2018-09-18T03:00:15.933Z,15.79
2018-09-18T03:02:44.007Z,15.79
2018-09-18T03:05:12.085Z,15.76
2018-09-18T03:07:40.189Z,15.71
2018-09-18T03:10:08.259Z,15.71
2018-09-18T03:12:36.329Z,15.70
2018-09-18T03:15:04.384Z,15.69
2018-09-18T03:17:32.467Z,15.66
2018-09-18T03:20:00.527Z,15.67
2018-09-18T03:22:28.611Z,15.67
2018-09-18T03:24:56.693Z,15.67
2018-09-18T03:27:24.865Z,15.70
2018-09-18T03:29:52.878Z,15.73
2018-09-18T03:32:20.968Z,15.80
2018-09-18T03:34:49.088Z,15.83
2018-09-18T03:37:17.195Z,15.87
2018-09-18T03:39:45.247Z,15.92
2018-09-18T03:42:13.333Z,15.95
2018-09-18T03:44:41.410Z,15.94
2018-09-18T03:47:09.496Z,15.98
2018-09-18T03:49:37.554Z,16.01
2018-09-18T03:52:05.636Z,16.04
2018-09-18T03:54:33.696Z,16.01
2018-09-18T03:57:01.780Z,15.94
2018-09-18T03:59:29.844Z,15.95
2018-09-18T04:01:57.916Z,15.95
2018-09-18T04:04:25.993Z,15.93
2018-09-18T04:06:54.099Z,15.88
2018-09-18T04:09:22.183Z,15.82
2018-09-18T04:11:50.272Z,15.76
2018-09-18T04:14:18.338Z,15.69
2018-09-18T04:16:46.429Z,15.55
2018-09-18T04:19:14.509Z,15.47
2018-09-18T04:21:43.347Z,15.39
2018-09-18T04:24:11.532Z,15.33
2018-09-18T04:26:40.625Z,15.28
2018-09-18T04:29:09.613Z,15.26
2018-09-18T04:31:38.976Z,15.23
2018-09-18T04:34:07.169Z,15.18
2018-09-18T04:36:35.257Z,15.15
2018-09-18T04:39:03.647Z,15.14
2018-09-18T04:41:31.716Z,15.09
2018-09-18T04:43:59.839Z,15.07
2018-09-18T04:46:27.927Z,15.07
2018-09-18T04:48:56.020Z,15.16
2018-09-18T04:51:24.165Z,15.20
2018-09-18T04:53:52.236Z,15.19
2018-09-18T04:56:20.319Z,15.19
2018-09-18T04:58:48.437Z,15.18
2018-09-18T05:01:16.536Z,15.17
2018-09-18T05:03:44.607Z,15.15
2018-09-18T05:06:12.763Z,15.15
2018-09-18T05:08:41.591Z,15.16
2018-09-18T05:11:09.761Z,15.13
2018-09-18T05:13:37.863Z,15.15
2018-09-18T05:16:06.008Z,15.18
2018-09-18T05:18:34.147Z,15.18
2018-09-18T05:21:02.211Z,15.15
2018-09-18T05:23:32.476Z,15.15
2018-09-18T05:26:00.576Z,15.17
2018-09-18T05:28:28.677Z,15.17
2018-09-18T05:30:56.793Z,15.21
2018-09-18T05:33:24.874Z,15.28
2018-09-18T05:35:52.978Z,15.43
2018-09-18T05:38:21.085Z,15.62
2018-09-18T05:40:49.162Z,15.85
2018-09-18T05:43:17.243Z,16.13
2018-09-18T05:45:45.332Z,16.54
2018-09-18T05:48:13.996Z,16.99
2018-09-18T05:50:43.502Z,17.43
2018-09-18T05:53:12.299Z,17.86
2018-09-18T05:55:40.395Z,18.31
2018-09-18T05:58:08.489Z,18.75
2018-09-18T06:00:36.556Z,19.26
2018-09-18T06:03:04.685Z,19.76
2018-09-18T06:05:32.749Z,20.17
2018-09-18T06:08:00.988Z,20.55
2018-09-18T06:10:29.084Z,20.93
2018-09-18T06:12:57.136Z,21.25
2018-09-18T06:15:25.350Z,21.48
2018-09-18T06:17:53.427Z,21.75
2018-09-18T06:20:21.544Z,22.15
2018-09-18T06:22:49.611Z,22.57
2018-09-18T06:25:17.708Z,22.95
2018-09-18T06:27:45.751Z,23.35
2018-09-18T06:30:13.823Z,23.79
2018-09-18T06:32:41.906Z,24.17
2018-09-18T06:35:10.023Z,24.45
2018-09-18T06:37:38.085Z,24.79
2018-09-18T06:40:06.168Z,25.14
2018-09-18T06:42:34.270Z,25.61
2018-09-18T06:45:02.360Z,26.03
2018-09-18T06:47:30.513Z,26.60
2018-09-18T06:49:58.611Z,26.90
2018-09-18T06:52:26.816Z,27.28
2018-09-18T06:54:54.892Z,27.66
2018-09-18T06:57:22.992Z,27.94
2018-09-18T06:59:51.099Z,28.19
2018-09-18T07:02:19.188Z,28.46
2018-09-18T07:04:47.284Z,28.47
2018-09-18T07:07:15.350Z,28.62
2018-09-18T07:09:43.468Z,28.90
2018-09-18T07:12:11.564Z,29.07
2018-09-18T07:14:39.644Z,29.35
2018-09-18T07:17:07.717Z,29.58
2018-09-18T07:19:35.802Z,29.92
2018-09-18T07:22:03.852Z,29.97
2018-09-18T07:24:31.952Z,30.36
2018-09-18T07:27:00.041Z,30.46
2018-09-18T07:29:28.174Z,30.46
2018-09-18T07:31:56.198Z,30.09
2018-09-18T07:34:24.255Z,30.55
2018-09-18T07:36:52.369Z,30.75
2018-09-18T07:39:20.520Z,30.90
2018-09-18T07:41:48.592Z,31.04
2018-09-18T07:44:16.680Z,30.92
2018-09-18T07:46:44.828Z,31.04
2018-09-18T07:49:12.891Z,31.10
2018-09-18T07:51:40.984Z,31.22
2018-09-18T07:54:09.137Z,31.22
2018-09-18T07:56:37.434Z,31.27
2018-09-18T07:59:05.503Z,31.50
2018-09-18T08:01:33.677Z,31.60
2018-09-18T08:04:01.750Z,31.55
2018-09-18T08:06:29.928Z,31.64
2018-09-18T08:08:58.016Z,31.75
2018-09-18T08:11:26.185Z,31.71
2018-09-18T08:13:54.278Z,31.72
2018-09-18T08:16:22.370Z,31.72
2018-09-18T08:18:50.588Z,31.67
2018-09-18T08:21:18.628Z,31.70
2018-09-18T08:23:46.723Z,31.59
2018-09-18T08:26:14.854Z,31.44
2018-09-18T08:28:42.965Z,31.45
2018-09-18T08:31:11.076Z,31.39
2018-09-18T08:33:39.161Z,31.47
2018-09-18T08:36:07.271Z,31.55
2018-09-18T08:38:35.743Z,31.61
2018-09-18T08:41:03.879Z,31.61
2018-09-18T08:43:38.156Z,31.58
2018-09-18T08:46:06.302Z,31.50
2018-09-18T08:48:34.414Z,31.41
2018-09-18T08:51:02.641Z,31.43
2018-09-18T08:53:31.661Z,31.40
2018-09-18T08:55:59.783Z,31.32
2018-09-18T08:58:27.985Z,31.31
2018-09-18T09:00:56.113Z,31.21
2018-09-18T09:03:24.229Z,31.31
2018-09-18T09:05:52.440Z,31.26
2018-09-18T09:08:20.619Z,31.28
2018-09-18T09:10:48.690Z,31.56
2018-09-18T09:13:16.750Z,31.77
2018-09-18T09:15:44.853Z,31.89
2018-09-18T09:18:12.974Z,31.79
2018-09-18T09:20:41.042Z,31.21
2018-09-18T09:23:12.417Z,30.95
2018-09-18T09:25:40.484Z,30.60
2018-09-18T09:28:08.789Z,30.38
2018-09-18T09:30:37.080Z,30.14
2018-09-18T09:33:05.215Z,30.01
2018-09-18T09:35:33.847Z,29.99
2018-09-18T09:38:03.238Z,29.90
2018-09-18T09:40:31.291Z,29.85
2018-09-18T09:43:05.625Z,29.88
2018-09-18T09:45:34.982Z,29.79
2018-09-18T09:48:05.502Z,29.81
2018-09-18T09:50:33.994Z,29.81
2018-09-18T09:53:02.148Z,29.83
2018-09-18T09:55:36.002Z,29.83
2018-09-18T09:58:04.085Z,29.88
2018-09-18T10:00:39.330Z,29.93
2018-09-18T10:03:07.552Z,30.07
2018-09-18T10:05:37.101Z,30.11
2018-09-18T10:08:05.228Z,30.12
2018-09-18T10:10:33.333Z,30.18
2018-09-18T10:13:08.334Z,30.16
2018-09-18T10:15:36.571Z,30.14
2018-09-18T10:18:04.740Z,30.13
2018-09-18T10:20:32.841Z,30.13
2018-09-18T10:23:01.349Z,30.11
2018-09-18T10:25:29.780Z,30.14
2018-09-18T10:27:57.912Z,30.26
2018-09-18T10:30:26.311Z,30.35
2018-09-18T10:32:54.439Z,30.37
2018-09-18T10:35:22.580Z,30.48
2018-09-18T10:37:50.706Z,30.52
2018-09-18T10:40:18.812Z,30.61
2018-09-18T10:42:46.995Z,30.53
2018-09-18T10:45:15.231Z,30.64
2018-09-18T10:47:43.373Z,30.78
2018-09-18T10:50:11.463Z,30.88
2018-09-18T10:52:43.743Z,30.92
2018-09-18T10:55:11.873Z,30.94
2018-09-18T10:57:41.166Z,31.01
2018-09-18T11:00:10.004Z,31.12
2018-09-18T11:02:38.356Z,31.13
2018-09-18T11:05:06.528Z,31.14
2018-09-18T11:07:34.678Z,31.08
2018-09-18T11:10:02.926Z,31.09
2018-09-18T11:12:30.940Z,31.21
2018-09-18T11:14:59.197Z,31.30
2018-09-18T11:17:27.303Z,31.36
2018-09-18T11:19:55.401Z,31.44
2018-09-18T11:22:23.694Z,31.47
2018-09-18T11:24:51.701Z,31.35
2018-09-18T11:27:20.350Z,31.36
2018-09-18T11:29:48.897Z,31.33
2018-09-18T11:32:17.316Z,31.48
2018-09-18T11:34:47.431Z,31.55
2018-09-18T11:37:15.536Z,31.45
2018-09-18T11:39:44.470Z,31.42
2018-09-18T11:42:12.625Z,31.35
2018-09-18T12:05:28.830Z,31.54
2018-09-18T12:07:56.957Z,31.56
2018-09-18T12:10:25.277Z,31.69
2018-09-18T12:12:53.495Z,31.71
2018-09-18T12:15:21.652Z,31.64
2018-09-18T12:17:50.513Z,31.68
2018-09-18T12:20:18.677Z,31.70
2018-09-18T12:22:48.622Z,31.67
2018-09-18T12:25:16.793Z,31.69
2018-09-18T12:27:45.253Z,31.71
2018-09-18T12:30:13.462Z,31.80
2018-09-18T12:32:41.847Z,31.85
2018-09-18T12:35:10.020Z,31.95
2018-09-18T12:37:38.157Z,31.75
2018-09-18T12:40:06.238Z,31.86
2018-09-18T12:42:34.417Z,31.77
2018-09-18T12:45:02.438Z,31.72
2018-09-18T12:47:30.565Z,31.76
2018-09-18T12:49:58.929Z,31.82
2018-09-18T12:52:26.878Z,31.79
2018-09-18T12:54:55.104Z,31.72
2018-09-18T12:57:23.247Z,31.73
2018-09-18T12:59:51.384Z,31.72
2018-09-18T13:02:19.368Z,31.72
2018-09-18T13:04:47.491Z,31.73
2018-09-18T13:07:15.640Z,31.76
2018-09-18T13:09:43.800Z,31.84
2018-09-18T13:12:11.902Z,31.87
2018-09-18T13:17:23.674Z,31.75
2018-09-18T13:19:52.032Z,31.63
2018-09-18T13:22:20.091Z,31.48
2018-09-18T13:24:48.286Z,31.44
2018-09-18T13:27:18.382Z,31.33
2018-09-18T13:29:46.571Z,31.26
2018-09-18T13:32:15.133Z,31.27
2018-09-18T13:34:43.314Z,31.28
2018-09-18T13:37:11.394Z,31.21
2018-09-18T13:39:39.649Z,31.39
2018-09-18T13:42:07.848Z,31.40
2018-09-18T13:44:36.648Z,31.36
2018-09-18T13:47:04.868Z,31.32
2018-09-18T13:49:33.355Z,31.24
2018-09-18T13:52:01.716Z,31.30
2018-09-18T13:54:29.880Z,31.40
2018-09-18T13:56:58.210Z,31.38
2018-09-18T13:59:26.516Z,31.33
2018-09-18T14:01:54.659Z,31.39
2018-09-18T14:04:22.887Z,31.38
2018-09-18T14:06:50.916Z,31.29
2018-09-18T14:09:19.336Z,31.23
2018-09-18T14:11:47.585Z,31.33
2018-09-18T14:14:16.218Z,31.31
2018-09-18T14:16:44.446Z,31.28
2018-09-18T14:19:12.812Z,31.25
2018-09-18T14:21:40.987Z,31.22
2018-09-18T14:24:09.113Z,31.30
2018-09-18T14:26:37.535Z,31.23
2018-09-18T14:29:05.706Z,31.22
2018-09-18T14:31:34.060Z,31.40
2018-09-18T14:34:02.197Z,31.41
2018-09-18T14:36:30.352Z,31.32
2018-09-18T14:38:58.538Z,31.39
2018-09-18T14:41:26.657Z,31.46
2018-09-18T14:43:54.754Z,31.41
2018-09-18T14:46:22.874Z,31.27
2018-09-18T14:48:50.977Z,31.31
2018-09-18T14:51:19.145Z,31.32
2018-09-18T14:53:47.344Z,31.33
2018-09-18T14:56:15.496Z,31.36
2018-09-18T14:58:43.605Z,31.35
2018-09-18T15:01:12.057Z,31.25
2018-09-18T15:03:40.537Z,31.26
2018-09-18T15:06:08.705Z,31.23
2018-09-18T15:08:36.776Z,31.19
2018-09-18T15:11:04.929Z,31.20
2018-09-18T15:13:33.052Z,31.13
2018-09-18T15:16:01.288Z,31.07
2018-09-18T15:18:29.528Z,31.06
2018-09-18T15:20:57.620Z,31.03
2018-09-18T15:23:25.969Z,31.02
2018-09-18T15:25:54.157Z,31.00
2018-09-18T15:28:22.387Z,31.03
2018-09-18T15:30:50.557Z,30.99
2018-09-18T15:33:18.658Z,31.05
2018-09-18T15:35:46.963Z,31.01
2018-09-18T15:38:15.207Z,30.94
2018-09-18T15:40:43.312Z,30.93
2018-09-18T15:43:11.504Z,30.91
2018-09-18T15:45:39.645Z,30.86
2018-09-18T15:48:07.645Z,30.83
2018-09-18T15:50:35.772Z,30.81
2018-09-18T15:53:04.142Z,30.75
2018-09-18T15:55:32.211Z,30.78
2018-09-18T15:58:00.367Z,30.80
2018-09-18T16:00:28.450Z,30.74
2018-09-18T16:02:56.596Z,30.74
2018-09-18T16:05:24.708Z,30.69
2018-09-18T16:07:53.293Z,30.63
2018-09-18T16:10:21.413Z,30.61
2018-09-18T16:12:50.136Z,30.59
2018-09-18T16:15:18.409Z,30.58
2018-09-18T16:17:48.104Z,30.46
2018-09-18T16:20:16.301Z,30.41
2018-09-18T16:22:44.482Z,30.34
2018-09-18T16:25:12.587Z,30.35
2018-09-18T16:27:40.767Z,30.27
2018-09-18T16:30:08.867Z,30.23
2018-09-18T16:32:37.024Z,30.14
2018-09-18T16:35:07.490Z,30.08
2018-09-18T16:37:38.164Z,30.01
2018-09-18T16:40:06.414Z,29.96
2018-09-18T16:42:34.709Z,29.93
2018-09-18T16:45:02.721Z,29.85
2018-09-18T16:47:30.829Z,29.78
2018-09-18T16:49:58.968Z,29.71
2018-09-18T16:52:27.073Z,29.62
2018-09-18T16:54:55.298Z,29.54
2018-09-18T16:57:23.310Z,29.48
2018-09-18T16:59:51.381Z,29.44
2018-09-18T17:02:19.568Z,29.35
2018-09-18T17:04:47.613Z,29.25
2018-09-18T17:07:15.696Z,29.18
2018-09-18T17:09:43.786Z,29.09
2018-09-18T17:12:11.934Z,29.00
2018-09-18T17:14:40.077Z,28.91
2018-09-18T17:17:08.257Z,28.83
2018-09-18T17:19:36.388Z,28.77
2018-09-18T17:22:04.657Z,28.75
2018-09-18T17:24:32.852Z,28.71
2018-09-18T17:27:00.993Z,28.60
2018-09-18T17:29:29.118Z,28.53
2018-09-18T17:31:57.270Z,28.46
2018-09-18T17:34:25.557Z,28.37
2018-09-18T17:36:53.626Z,28.26
2018-09-18T17:39:21.814Z,28.17
2018-09-18T17:41:49.904Z,28.10
2018-09-18T17:44:18.024Z,28.02
2018-09-18T17:46:46.148Z,27.97
2018-09-18T17:49:14.290Z,27.90
2018-09-18T17:51:42.398Z,27.84
2018-09-18T17:54:10.599Z,27.78
2018-09-18T17:56:38.861Z,27.71
2018-09-18T17:59:06.995Z,27.64
2018-09-18T18:01:35.073Z,27.61
2018-09-18T18:04:03.406Z,27.54
2018-09-18T18:06:31.763Z,27.48
2018-09-18T18:08:59.981Z,27.42
2018-09-18T18:11:28.132Z,27.36
2018-09-18T18:13:56.331Z,27.27
2018-09-18T18:16:24.461Z,27.20
2018-09-18T18:18:52.595Z,27.13
2018-09-18T18:21:20.956Z,27.08
2018-09-18T18:23:49.064Z,27.01
2018-09-18T18:26:17.262Z,26.93
2018-09-18T18:28:45.329Z,26.87
2018-09-18T18:31:13.419Z,26.66
2018-09-18T18:33:41.565Z,26.76
2018-09-18T18:36:09.777Z,26.71
2018-09-18T18:38:38.385Z,26.66
2018-09-18T18:41:06.538Z,26.65
2018-09-18T18:43:34.673Z,26.61
2018-09-18T18:46:02.728Z,26.61
2018-09-18T18:48:31.046Z,26.60
2018-09-18T18:50:59.072Z,26.56
2018-09-18T18:53:27.169Z,26.56
2018-09-18T18:55:55.442Z,26.57
2018-09-18T18:58:23.482Z,26.57
2018-09-18T19:00:51.570Z,26.58
2018-09-18T19:03:19.745Z,26.57
2018-09-18T19:05:47.867Z,26.61
2018-09-18T19:08:16.103Z,26.58
2018-09-18T19:10:44.269Z,26.60
2018-09-18T19:13:12.379Z,26.57
2018-09-18T19:15:40.582Z,26.52
2018-09-18T19:18:08.685Z,26.46
2018-09-18T19:20:36.804Z,26.43
2018-09-18T19:23:05.217Z,26.37
2018-09-18T19:25:33.534Z,26.31
2018-09-18T19:28:01.769Z,26.28
2018-09-18T19:30:30.122Z,26.21
2018-09-18T19:32:58.419Z,26.16
2018-09-18T19:35:26.512Z,26.10
2018-09-18T19:37:54.628Z,26.04
2018-09-18T19:40:23.061Z,25.96
2018-09-18T19:42:51.208Z,25.89
2018-09-18T19:45:19.299Z,25.83
2018-09-18T19:47:47.406Z,25.72
2018-09-18T19:50:16.487Z,25.64
2018-09-18T19:52:45.702Z,25.53
2018-09-18T19:55:14.276Z,25.47
2018-09-18T19:57:42.360Z,25.38
2018-09-18T20:00:14.846Z,25.32
2018-09-18T20:02:43.162Z,25.24
2018-09-18T20:05:11.800Z,25.18
2018-09-18T20:07:40.193Z,25.11
2018-09-18T20:10:09.057Z,25.00
2018-09-18T20:12:37.289Z,24.95
2018-09-18T20:15:05.360Z,24.82
2018-09-18T20:17:33.481Z,24.82
2018-09-18T20:20:01.637Z,24.72
2018-09-18T20:22:29.789Z,24.67
2018-09-18T20:24:57.989Z,24.59
2018-09-18T20:27:26.180Z,24.54
2018-09-18T20:29:54.295Z,24.51
2018-09-18T20:32:22.435Z,24.46
2018-09-18T20:34:50.538Z,24.39
2018-09-18T20:37:18.817Z,24.32
2018-09-18T20:42:26.848Z,24.22
2018-09-18T20:44:55.057Z,24.16
2018-09-18T20:47:23.153Z,24.11
2018-09-18T20:49:51.349Z,24.06
2018-09-18T20:52:19.478Z,23.98
2018-09-18T20:54:47.776Z,23.94
2018-09-18T20:57:15.964Z,23.89
2018-09-18T20:59:44.071Z,23.85
2018-09-18T21:02:12.308Z,23.81
2018-09-18T21:04:40.346Z,23.75
2018-09-18T21:07:08.431Z,23.69
2018-09-18T21:09:36.551Z,23.63
2018-09-18T21:12:04.680Z,23.59
2018-09-18T21:14:32.811Z,23.52
2018-09-18T21:17:01.273Z,23.46
2018-09-18T21:19:29.424Z,23.40
2018-09-18T21:21:57.506Z,23.37
2018-09-18T21:24:25.723Z,23.33
2018-09-18T21:26:53.804Z,23.28
2018-09-18T21:29:21.907Z,23.23
2018-09-18T21:31:50.027Z,23.19
2018-09-18T21:34:18.130Z,23.14
2018-09-18T21:36:46.264Z,23.09
2018-09-18T21:39:14.339Z,23.03
2018-09-18T21:41:42.476Z,22.99
2018-09-18T21:44:10.608Z,22.94
2018-09-18T21:46:38.697Z,22.88
2018-09-18T21:49:06.764Z,22.81
2018-09-18T21:51:34.994Z,22.73
2018-09-18T21:54:03.084Z,22.67
2018-09-18T21:56:31.183Z,22.60
2018-09-18T21:58:59.274Z,22.53
2018-09-18T22:01:27.421Z,22.47
2018-09-18T22:03:55.411Z,22.41
2018-09-18T22:06:23.510Z,22.36
2018-09-18T22:08:51.600Z,22.30
2018-09-18T22:11:19.689Z,22.25
2018-09-18T22:13:47.937Z,22.17
2018-09-18T22:16:16.045Z,22.12
2018-09-18T22:18:44.159Z,22.06
2018-09-18T22:21:12.241Z,22.02
2018-09-18T22:23:40.319Z,21.96
2018-09-18T22:26:08.406Z,21.92
2018-09-18T22:28:36.478Z,21.87
2018-09-18T22:31:04.618Z,21.81
2018-09-18T22:33:32.733Z,21.75
2018-09-18T22:36:00.840Z,21.68
2018-09-18T22:38:28.927Z,21.64
2018-09-18T22:40:57.068Z,21.58
2018-09-18T22:43:25.108Z,21.54
2018-09-18T22:45:53.920Z,21.49
2018-09-18T22:48:21.988Z,21.43
2018-09-18T22:50:50.069Z,21.41
2018-09-18T22:53:18.195Z,21.36
2018-09-18T22:55:46.372Z,21.33
2018-09-18T22:58:14.437Z,21.28
2018-09-18T23:00:42.492Z,21.26
2018-09-18T23:03:10.563Z,21.22
2018-09-18T23:05:38.647Z,21.18
2018-09-18T23:08:06.753Z,21.13
2018-09-18T23:10:34.869Z,21.09
2018-09-18T23:13:02.971Z,21.03
2018-09-18T23:15:31.040Z,21.02
2018-09-18T23:17:59.164Z,20.97
2018-09-18T23:20:27.260Z,20.93
2018-09-18T23:22:55.335Z,20.89
2018-09-18T23:25:23.441Z,20.86
2018-09-18T23:27:51.528Z,20.85
2018-09-18T23:30:19.565Z,20.84
2018-09-18T23:32:47.644Z,20.80
2018-09-18T23:35:15.704Z,20.78
2018-09-18T23:37:43.821Z,20.75
2018-09-18T23:40:11.906Z,20.75
2018-09-18T23:42:40.020Z,20.74
2018-09-18T23:45:08.128Z,20.72
2018-09-18T23:47:36.223Z,20.69
2018-09-18T23:50:04.363Z,20.67
2018-09-18T23:52:32.466Z,20.63
2018-09-18T23:55:00.540Z,20.59
2018-09-18T23:57:35.348Z,20.57
